createdAt,value
2023-08-17T00:01:09.240Z,86.40
2023-08-17T00:38:03.046Z,89.10
2023-08-17T00:40:39.723Z,89.50
2023-08-17T00:43:38.903Z,89.60
2023-08-17T00:52:36.189Z,90.30
2023-08-17T00:58:45.173Z,90.40
2023-08-17T01:01:33.689Z,90.70
2023-08-17T01:04:18.875Z,90.80
2023-08-17T01:07:01.318Z,90.70
2023-08-17T01:09:31.262Z,90.90
2023-08-17T01:13:09.668Z,91.00
2023-08-17T01:15:59.788Z,91.10
2023-08-17T01:26:00.633Z,91.40
2023-08-17T01:39:06.549Z,92.00
2023-08-17T01:41:42.722Z,92.00
2023-08-17T01:44:27.373Z,92.20
2023-08-17T01:47:15.783Z,92.30
2023-08-17T01:49:56.346Z,92.30
2023-08-17T01:52:32.023Z,92.40
2023-08-17T01:55:18.868Z,92.50
2023-08-17T02:00:57.791Z,92.70
2023-08-17T02:03:24.621Z,92.70
2023-08-17T02:06:09.677Z,92.90
2023-08-17T02:09:00.164Z,93.20
2023-08-17T02:11:27.091Z,93.30
2023-08-17T02:16:56.071Z,93.90
2023-08-17T02:22:06.180Z,94.30
2023-08-17T02:30:43.428Z,94.90
2023-08-17T02:33:14.163Z,95.20
2023-08-17T02:38:32.789Z,95.40
2023-08-17T02:43:59.225Z,95.80
2023-08-17T02:46:26.152Z,95.90
2023-08-17T02:48:53.981Z,96.10
2023-08-17T02:51:32.180Z,96.20
2023-08-17T02:53:59.139Z,96.40
2023-08-17T02:56:29.321Z,96.50
2023-08-17T03:01:54.571Z,96.70
2023-08-17T03:07:46.181Z,96.80
2023-08-17T03:10:31.876Z,96.90
2023-08-17T03:13:31.859Z,96.90
2023-08-17T03:16:01.083Z,96.90
2023-08-17T03:21:26.126Z,97.10
2023-08-17T03:23:55.867Z,97.10
2023-08-17T03:26:24.902Z,97.10
2023-08-17T03:29:03.579Z,97.00
2023-08-17T03:31:33.475Z,96.90
2023-08-17T03:34:00.531Z,97.10
2023-08-17T03:39:39.136Z,96.90
2023-08-17T03:42:06.416Z,96.90
2023-08-17T03:44:42.199Z,96.80
2023-08-17T03:47:24.134Z,96.70
2023-08-17T03:49:53.729Z,96.80
2023-08-17T03:52:20.691Z,96.70
2023-08-17T03:54:47.548Z,96.80
2023-08-17T03:57:14.330Z,96.80
2023-08-17T03:59:42.975Z,96.60
2023-08-17T04:02:09.837Z,96.70
2023-08-17T04:04:39.037Z,96.70
2023-08-17T04:09:49.856Z,96.30
2023-08-17T04:12:18.729Z,96.40
2023-08-17T04:14:45.899Z,96.30
2023-08-17T04:17:13.325Z,96.20
2023-08-17T04:19:40.255Z,96.10
2023-08-17T04:22:09.568Z,96.20
2023-08-17T04:24:39.288Z,96.10
2023-08-17T04:27:19.343Z,96.00
2023-08-17T04:29:52.317Z,96.00
2023-08-17T04:32:28.596Z,95.80
2023-08-17T04:35:03.335Z,96.00
2023-08-17T04:37:30.273Z,95.90
2023-08-17T04:39:57.080Z,95.90
2023-08-17T04:42:31.504Z,95.90
2023-08-17T04:44:58.405Z,96.00
2023-08-17T04:47:25.563Z,95.80
2023-08-17T04:49:55.412Z,95.90
2023-08-17T04:52:22.255Z,95.60
2023-08-17T04:54:49.150Z,95.50
2023-08-17T04:57:15.946Z,95.60
2023-08-17T05:02:23.709Z,95.90
2023-08-17T05:04:56.041Z,95.90
2023-08-17T05:18:07.037Z,96.00
2023-08-17T05:20:51.820Z,95.90
2023-08-17T05:26:29.002Z,95.80
2023-08-17T05:48:07.119Z,94.20
2023-08-17T05:50:36.449Z,93.90
2023-08-17T05:53:19.057Z,93.80
2023-08-17T05:55:48.529Z,93.90
2023-08-17T05:58:43.523Z,93.90
2023-08-17T06:01:12.697Z,93.70
2023-08-17T06:03:40.581Z,93.50
2023-08-17T06:06:10.917Z,93.20
2023-08-17T06:08:37.998Z,93.30
2023-08-17T06:11:05.322Z,93.10
2023-08-17T06:13:37.444Z,92.80
2023-08-17T06:19:23.712Z,92.60
2023-08-17T06:22:14.712Z,92.40
2023-08-17T06:24:56.974Z,92.40
2023-08-17T06:31:03.914Z,92.40
2023-08-17T06:39:31.211Z,91.20
2023-08-17T06:42:00.507Z,91.60
2023-08-17T06:47:39.798Z,91.70
2023-08-17T06:50:10.758Z,91.70
2023-08-17T06:53:18.977Z,92.10
2023-08-17T06:55:38.444Z,91.80
2023-08-17T06:58:40.038Z,91.80
2023-08-17T07:01:35.764Z,91.70
2023-08-17T07:03:59.176Z,91.90
2023-08-17T07:09:22.803Z,92.10
2023-08-17T07:15:15.987Z,92.40
2023-08-17T07:17:42.920Z,92.20
2023-08-17T07:20:22.779Z,91.80
2023-08-17T07:22:49.682Z,91.40
2023-08-17T07:25:16.650Z,91.50
2023-08-17T07:27:54.516Z,90.90
2023-08-17T07:30:24.071Z,90.30
2023-08-17T07:32:51.166Z,90.80
2023-08-17T07:35:35.643Z,89.70
2023-08-17T07:38:50.145Z,90.00
2023-08-17T07:41:17.317Z,89.80
2023-08-17T07:43:47.433Z,90.10
2023-08-17T07:46:16.985Z,90.10
2023-08-17T07:48:43.944Z,89.90
2023-08-17T07:51:33.281Z,89.80
2023-08-17T07:54:04.236Z,88.60
2023-08-17T08:04:50.055Z,86.20
2023-08-17T08:08:17.606Z,85.00
2023-08-17T08:11:29.040Z,83.30
2023-08-17T08:13:58.296Z,83.10
2023-08-17T08:16:28.832Z,83.20
2023-08-17T08:21:57.982Z,83.10
2023-08-17T08:30:41.588Z,82.50
2023-08-17T08:33:35.057Z,82.30
2023-08-17T08:36:03.423Z,82.20
2023-08-17T08:38:30.320Z,82.60
2023-08-17T08:40:57.268Z,82.90
2023-08-17T08:46:40.370Z,82.60
2023-08-17T08:54:45.377Z,81.50
2023-08-17T08:57:15.194Z,82.50
2023-08-17T09:00:00.304Z,82.50
2023-08-17T09:02:31.412Z,82.30
2023-08-17T09:04:58.847Z,81.80
2023-08-17T09:07:38.458Z,80.60
2023-08-17T09:10:06.061Z,81.10
2023-08-17T09:12:41.080Z,80.50
2023-08-17T09:15:09.738Z,81.00
2023-08-17T09:17:39.481Z,80.70
2023-08-17T09:20:48.719Z,80.80
2023-08-17T09:23:21.048Z,81.40
2023-08-17T09:25:57.560Z,82.10
2023-08-17T09:29:17.176Z,81.00
2023-08-17T09:31:50.314Z,80.60
2023-08-17T09:35:07.841Z,78.40
2023-08-17T09:37:49.551Z,78.80
2023-08-17T09:40:27.544Z,78.70
2023-08-17T09:43:04.838Z,77.90
2023-08-17T09:48:55.174Z,76.00
2023-08-17T09:51:31.726Z,76.60
2023-08-17T09:54:53.391Z,75.50
2023-08-17T09:57:31.622Z,75.80
2023-08-17T10:00:09.507Z,77.50
2023-08-17T10:02:36.600Z,78.10
2023-08-17T10:05:24.946Z,76.80
2023-08-17T10:07:56.055Z,77.20
2023-08-17T10:10:32.117Z,77.70
2023-08-17T10:13:41.906Z,75.40
2023-08-17T10:16:30.285Z,74.80
2023-08-17T10:19:32.415Z,75.30
2023-08-17T10:24:59.732Z,76.60
2023-08-17T10:27:50.845Z,76.40
2023-08-17T10:33:21.882Z,75.50
2023-08-17T10:38:30.229Z,76.40
2023-08-17T10:51:27.692Z,76.20
2023-08-17T10:54:06.122Z,75.70
2023-08-17T10:56:34.384Z,76.20
2023-08-17T10:59:31.347Z,76.40
2023-08-17T11:05:02.247Z,76.10
2023-08-17T11:10:49.534Z,77.10
2023-08-17T11:14:03.621Z,77.10
2023-08-17T11:16:30.673Z,76.40
2023-08-17T11:19:01.839Z,76.60
2023-08-17T11:21:29.078Z,76.10
2023-08-17T11:23:57.333Z,77.00
2023-08-17T11:29:44.636Z,75.80
2023-08-17T11:32:11.798Z,75.40
2023-08-17T11:34:42.257Z,76.70
2023-08-17T11:37:09.417Z,77.10
2023-08-17T11:39:36.242Z,76.90
2023-08-17T11:42:20.093Z,78.30
2023-08-17T11:45:06.446Z,77.60
2023-08-17T11:58:10.652Z,77.10
2023-08-17T12:00:53.084Z,77.80
2023-08-17T12:03:21.014Z,78.60
2023-08-17T12:05:48.035Z,78.90
2023-08-17T12:08:20.932Z,78.80
2023-08-17T12:11:00.201Z,77.70
2023-08-17T12:27:37.790Z,79.60
2023-08-17T12:33:19.506Z,78.40
2023-08-17T12:43:08.189Z,79.40
2023-08-17T12:45:41.523Z,79.30
2023-08-17T12:48:11.437Z,78.90
2023-08-17T12:50:58.749Z,79.40
2023-08-17T12:53:28.625Z,78.90
2023-08-17T12:55:56.625Z,80.20
2023-08-17T12:58:41.752Z,80.10
2023-08-17T13:01:08.704Z,79.70
2023-08-17T13:09:09.756Z,81.10
2023-08-17T13:11:56.945Z,81.20
2023-08-17T13:17:07.154Z,81.30
2023-08-17T13:19:44.459Z,81.80
2023-08-17T13:22:16.559Z,81.60
2023-08-17T13:24:55.534Z,81.50
2023-08-17T13:27:47.285Z,81.30
2023-08-17T13:30:16.351Z,81.80
2023-08-17T13:35:23.689Z,81.50
2023-08-17T13:38:00.918Z,82.10
2023-08-17T13:40:42.774Z,81.90
2023-08-17T13:43:30.763Z,81.90
2023-08-17T13:46:03.202Z,81.30
2023-08-17T13:48:31.053Z,80.80
2023-08-17T13:50:57.891Z,81.40
2023-08-17T13:53:37.097Z,81.90
2023-08-17T13:56:04.323Z,82.10
2023-08-17T14:01:32.932Z,82.90
2023-08-17T14:04:03.159Z,82.30
2023-08-17T14:14:50.217Z,82.20
2023-08-17T14:17:25.143Z,82.60
2023-08-17T14:20:11.027Z,82.60
2023-08-17T14:22:40.879Z,83.00
2023-08-17T14:25:17.284Z,83.00
2023-08-17T14:31:40.776Z,83.40
2023-08-17T14:35:15.648Z,83.20
2023-08-17T14:37:44.796Z,83.50
2023-08-17T14:40:23.435Z,83.60
2023-08-17T14:42:54.272Z,83.10
2023-08-17T14:45:22.099Z,83.10
2023-08-17T14:47:48.935Z,83.00
2023-08-17T14:50:15.724Z,83.30
2023-08-17T14:52:42.696Z,83.10
2023-08-17T14:55:11.616Z,83.00
2023-08-17T14:57:53.432Z,82.80
2023-08-17T15:00:34.298Z,82.90
2023-08-17T15:03:02.696Z,83.20
2023-08-17T15:08:18.003Z,83.60
2023-08-17T15:10:48.354Z,83.60
2023-08-17T15:13:16.036Z,83.70
2023-08-17T15:16:01.144Z,84.00
2023-08-17T15:18:30.926Z,83.60
2023-08-17T15:20:58.894Z,84.30
2023-08-17T15:24:25.608Z,83.90
2023-08-17T15:29:42.162Z,83.90
2023-08-17T15:32:12.150Z,84.50
2023-08-17T15:34:39.203Z,84.90
2023-08-17T15:37:15.230Z,85.00
2023-08-17T15:39:45.235Z,85.00
2023-08-17T15:42:38.697Z,85.00
2023-08-17T15:45:40.390Z,84.60
2023-08-17T15:48:07.594Z,84.60
2023-08-17T15:50:34.676Z,85.10
2023-08-17T15:53:05.135Z,85.10
2023-08-17T15:55:35.251Z,85.40
2023-08-17T15:58:02.962Z,85.70
2023-08-17T16:00:29.692Z,85.50
2023-08-17T16:03:12.481Z,85.90
2023-08-17T16:06:18.211Z,86.00
2023-08-17T16:08:49.763Z,85.80
2023-08-17T16:11:17.456Z,85.50
2023-08-17T16:13:52.879Z,85.70
2023-08-17T16:16:43.937Z,85.80
2023-08-17T16:22:26.548Z,85.90
2023-08-17T16:25:01.480Z,85.80
2023-08-17T16:27:28.984Z,86.00
2023-08-17T16:30:05.799Z,86.50
2023-08-17T16:32:38.743Z,86.10
2023-08-17T16:35:13.795Z,86.30
2023-08-17T16:37:52.960Z,86.40
2023-08-17T16:40:37.116Z,86.80
2023-08-17T16:48:51.129Z,86.90
2023-08-17T16:51:20.444Z,87.00
2023-08-17T16:59:12.428Z,88.10
2023-08-17T17:04:38.445Z,88.60
2023-08-17T17:07:05.265Z,88.70
2023-08-17T17:09:36.224Z,88.60
2023-08-17T17:12:19.885Z,88.60
2023-08-17T17:15:00.406Z,89.00
2023-08-17T17:17:39.564Z,89.30
2023-08-17T17:20:12.439Z,89.70
2023-08-17T18:27:07.476Z,94.90
2023-08-17T18:32:54.410Z,94.80
2023-08-17T18:35:34.593Z,94.60
2023-08-17T18:38:02.012Z,94.70
2023-08-17T18:40:54.163Z,94.60
2023-08-17T18:43:24.472Z,95.00
2023-08-17T18:51:34.774Z,95.00
2023-08-17T19:00:20.165Z,94.80
2023-08-17T19:22:42.717Z,96.40
2023-08-17T19:42:43.902Z,97.40
2023-08-17T19:45:23.273Z,97.30
2023-08-17T19:50:37.608Z,97.30
2023-08-17T19:53:18.072Z,97.30
2023-08-17T19:55:53.471Z,97.40
2023-08-17T19:58:30.344Z,97.60
2023-08-17T20:14:01.706Z,98.30
2023-08-17T20:22:29.719Z,98.50
2023-08-17T20:40:35.948Z,99.50
2023-08-17T20:43:14.639Z,99.60
2023-08-17T20:55:09.136Z,99.80
2023-08-17T20:57:47.780Z,99.70
2023-08-17T21:00:20.945Z,99.60
2023-08-17T21:03:05.444Z,99.30
2023-08-17T21:05:41.836Z,99.40
2023-08-17T21:08:58.398Z,99.20
2023-08-17T21:14:06.775Z,98.90
2023-08-17T21:16:37.828Z,98.90
2023-08-17T21:22:28.926Z,97.20
2023-08-17T21:24:56.032Z,96.80
2023-08-17T21:29:53.988Z,95.60
2023-08-17T21:32:47.924Z,95.70
2023-08-17T21:35:30.886Z,95.50
2023-08-17T21:38:06.277Z,95.80
2023-08-17T21:40:37.725Z,95.80
2023-08-17T21:43:04.764Z,95.80
2023-08-17T21:45:32.352Z,96.10
2023-08-17T21:50:43.752Z,95.90
2023-08-17T21:53:10.775Z,96.10
2023-08-17T21:55:44.064Z,96.20
2023-08-17T21:58:10.849Z,96.30
2023-08-17T22:00:50.419Z,96.30
2023-08-17T22:03:23.138Z,96.50
2023-08-17T22:05:53.543Z,96.30
2023-08-17T22:08:29.324Z,96.10
2023-08-17T22:11:00.186Z,96.10
2023-08-17T22:13:27.795Z,96.10
2023-08-17T22:15:55.510Z,96.10
2023-08-17T22:18:39.932Z,96.30
2023-08-17T22:21:07.107Z,96.30
2023-08-17T22:23:40.213Z,96.30
2023-08-17T22:26:17.187Z,96.40
2023-08-17T22:31:58.378Z,96.60
2023-08-17T22:37:03.480Z,96.50
2023-08-17T22:39:36.257Z,96.10
2023-08-17T22:42:05.850Z,96.10
2023-08-17T22:44:50.179Z,96.10
2023-08-17T22:47:32.584Z,95.70
2023-08-17T22:50:01.068Z,95.20
2023-08-17T22:52:33.276Z,95.00
2023-08-17T22:55:09.338Z,94.80
2023-08-17T22:57:36.672Z,94.50
2023-08-17T23:00:24.223Z,94.30
2023-08-17T23:03:03.350Z,94.20
2023-08-17T23:05:31.323Z,93.80
2023-08-17T23:08:17.005Z,93.40
2023-08-17T23:10:58.999Z,93.40
2023-08-17T23:13:26.144Z,93.20
2023-08-17T23:15:53.419Z,93.10
2023-08-17T23:18:35.747Z,92.90
2023-08-17T23:21:04.987Z,92.40
2023-08-17T23:23:41.142Z,92.30
2023-08-17T23:26:07.932Z,92.00
2023-08-17T23:28:35.430Z,92.20
2023-08-17T23:31:08.521Z,92.60
2023-08-17T23:33:57.895Z,92.10
2023-08-17T23:36:34.880Z,92.30
2023-08-17T23:39:04.797Z,92.40
2023-08-17T23:41:34.955Z,92.60
2023-08-17T23:44:02.237Z,92.60
2023-08-17T23:46:29.626Z,92.60
2023-08-17T23:48:59.629Z,92.80
2023-08-17T23:51:27.104Z,92.70
2023-08-17T23:54:02.292Z,92.70
2023-08-17T23:56:31.630Z,92.90
2023-08-17T23:59:04.516Z,92.90
